Time;durP1;ratioP1;P1;durP2;ratioP2;P2;SDS_P1;SDS_P2;PMS_P1;PMS_P2;Temp;Humidity;BMP_temperature;BMP_pressure;BME280_temperature;BME280_humidity;BME280_pressure;Samples;Min_cycle;Max_cycle;Signal;HPM_P1;HPM_P2
2022/11/18 00:01:39;;;;;;;31.83;25.63;;;6.60;99.90;;;;;;5068724;28;20044;-83
2022/11/18 00:04:05;;;;;;;33.50;24.77;;;6.90;99.90;;;;;;5094486;28;20059;-81
2022/11/18 00:06:31;;;;;;;31.90;24.15;;;6.80;99.90;;;;;;5064265;28;20048;-84
2022/11/18 00:08:58;;;;;;;31.98;23.35;;;7.00;99.90;;;;;;5078818;28;20032;-83
2022/11/18 00:14:19;;;;;;;31.67;25.02;;;7.00;99.90;;;;;;5084191;28;20064;-81
2022/11/18 00:16:45;;;;;;;;;;;6.80;99.90;;;;;;5104496;28;20123;-82
2022/11/18 00:19:11;;;;;;;26.88;21.48;;;7.00;99.90;;;;;;5100344;28;20286;-82
2022/11/18 00:21:37;;;;;;;30.10;23.60;;;7.10;99.90;;;;;;5069217;28;20060;-83
2022/11/18 00:24:03;;;;;;;31.45;24.08;;;6.80;99.90;;;;;;5077240;28;20047;-80
2022/11/18 00:26:28;;;;;;;27.00;21.83;;;6.70;99.90;;;;;;5065137;28;20042;-81
2022/11/18 00:28:54;;;;;;;29.40;23.55;;;6.70;99.90;;;;;;5076837;28;20393;-79
2022/11/18 00:31:19;;;;;;;29.90;23.30;;;6.70;99.90;;;;;;5076687;28;20138;-80
2022/11/18 00:33:45;;;;;;;30.27;22.30;;;7.00;99.90;;;;;;5108461;27;20079;-80
2022/11/18 00:36:11;;;;;;;31.52;22.98;;;7.00;99.90;;;;;;5090774;27;20063;-80
2022/11/18 00:38:38;;;;;;;30.42;23.00;;;6.90;99.90;;;;;;5075758;28;20159;-80
2022/11/18 00:41:09;;;;;;;30.23;23.70;;;6.70;99.90;;;;;;5077650;28;20435;-83
2022/11/18 00:43:35;;;;;;;34.25;23.08;;;6.90;99.90;;;;;;5115217;27;20056;-80
2022/11/18 00:46:02;;;;;;;29.65;23.48;;;6.90;99.90;;;;;;5108113;27;20309;-82
2022/11/18 00:48:28;;;;;;;29.13;20.83;;;6.90;99.90;;;;;;5063871;28;20047;-85
2022/11/18 00:50:55;;;;;;;33.28;23.65;;;6.70;99.90;;;;;;5063291;28;20047;-83
2022/11/18 00:53:24;;;;;;;29.30;22.00;;;6.90;99.90;;;;;;5078018;28;20040;-83
2022/11/18 00:55:50;;;;;;;32.22;23.27;;;6.90;99.90;;;;;;5061494;28;20080;-84
2022/11/18 00:58:16;;;;;;;32.83;22.50;;;7.00;99.90;;;;;;5079492;28;20075;-85
2022/11/18 01:00:44;;;;;;;31.05;23.13;;;6.60;99.90;;;;;;5074177;28;20081;-80
2022/11/18 01:03:10;;;;;;;34.28;25.02;;;6.70;99.90;;;;;;5079180;28;20105;-84
2022/11/18 01:05:37;;;;;;;34.70;23.48;;;6.90;99.90;;;;;;5077730;28;20036;-81
2022/11/18 01:08:05;;;;;;;33.30;23.35;;;6.70;99.90;;;;;;5079282;28;20044;-79
2022/11/18 01:10:30;;;;;;;32.95;23.05;;;6.60;99.90;;;;;;5099319;28;20493;-85
2022/11/18 01:15:42;;;;;;;37.97;24.00;;;6.60;99.90;;;;;;5085686;28;20040;-81
2022/11/18 01:18:09;;;;;;;34.00;23.55;;;6.70;99.90;;;;;;5090764;28;20040;-82
2022/11/18 01:20:35;;;;;;;39.30;25.38;;;6.70;99.90;;;;;;5092097;28;20032;-82
2022/11/18 01:23:02;;;;;;;36.55;23.98;;;6.70;99.90;;;;;;5068325;28;20085;-82
2022/11/18 01:25:28;;;;;;;36.17;24.15;;;6.90;99.90;;;;;;5081765;28;20032;-81
2022/11/18 01:27:56;;;;;;;33.75;23.95;;;6.60;99.90;;;;;;5082792;28;20051;-80
2022/11/18 01:30:22;;;;;;;34.17;23.27;;;6.80;99.90;;;;;;5102467;28;20445;-80
2022/11/18 01:32:48;;;;;;;32.70;22.95;;;6.70;99.90;;;;;;5078908;28;20040;-84
2022/11/18 01:35:14;;;;;;;33.25;22.92;;;6.80;99.90;;;;;;5077552;28;20032;-81
2022/11/18 01:37:40;;;;;;;33.15;22.95;;;6.70;99.90;;;;;;5077335;28;20041;-82
2022/11/18 01:40:08;;;;;;;39.70;26.25;;;7.00;99.90;;;;;;5084527;28;20542;-82
2022/11/18 01:42:34;;;;;;;47.90;29.05;;;6.60;99.90;;;;;;5095184;28;20054;-84
2022/11/18 01:45:03;;;;;;;55.85;32.97;;;6.80;99.90;;;;;;5079868;28;20044;-79
2022/11/18 01:47:39;;;;;;;69.68;37.58;;;6.90;99.90;;;;;;5065202;28;20503;-80
2022/11/18 01:50:05;;;;;;;92.28;45.58;;;6.80;99.90;;;;;;5083487;28;20043;-83
2022/11/18 01:52:32;;;;;;;90.15;43.53;;;6.60;99.90;;;;;;5065818;28;20210;-81
2022/11/18 01:55:13;;;;;;;93.25;42.38;;;6.60;99.90;;;;;;5097324;28;20146;-80
2022/11/18 01:57:39;;;;;;;92.38;46.88;;;6.60;99.90;;;;;;5083915;28;20048;-82
2022/11/18 02:00:06;;;;;;;89.13;44.72;;;6.40;99.90;;;;;;5081815;28;20040;-81
2022/11/18 02:02:34;;;;;;;83.15;42.70;;;6.50;99.90;;;;;;5061518;28;20046;-83
2022/11/18 02:05:01;;;;;;;84.18;41.72;;;6.70;99.90;;;;;;5068631;28;20040;-81
2022/11/18 02:07:27;;;;;;;67.72;39.78;;;6.60;99.90;;;;;;5082796;28;20064;-82
2022/11/18 02:09:56;;;;;;;70.35;37.63;;;6.50;99.90;;;;;;5082748;28;20067;-84
2022/11/18 02:12:22;;;;;;;69.68;37.90;;;6.70;99.90;;;;;;5081998;28;20040;-83
2022/11/18 02:14:49;;;;;;;72.75;36.78;;;6.50;99.90;;;;;;5062324;28;20063;-80
2022/11/18 02:17:51;;;;;;;65.93;36.22;;;6.50;99.90;;;;;;5060921;28;20036;-82
2022/11/18 02:20:29;;;;;;;65.18;33.38;;;6.50;99.90;;;;;;5078590;28;20040;-84
2022/11/18 02:23:14;;;;;;;58.13;31.20;;;6.50;99.90;;;;;;5062000;28;20047;-84
2022/11/18 02:26:13;;;;;;;55.65;30.38;;;6.60;99.90;;;;;;5062200;28;20039;-85
2022/11/18 02:29:11;;;;;;;59.72;30.42;;;6.60;99.90;;;;;;5112818;28;20089;-83
2022/11/18 02:31:58;;;;;;;58.83;32.08;;;6.70;99.90;;;;;;5006083;28;20103;-79
2022/11/18 02:34:50;;;;;;;52.72;31.58;;;6.40;99.90;;;;;;5023889;28;20084;-80
2022/11/18 02:37:42;;;;;;;69.88;35.13;;;6.70;99.90;;;;;;5043749;28;20048;-82
2022/11/18 02:40:08;;;;;;;65.47;33.40;;;6.40;99.90;;;;;;5043119;28;20087;-82
2022/11/18 02:42:36;;;;;;;69.50;33.53;;;6.40;99.90;;;;;;5007482;28;20045;-83
2022/11/18 02:45:09;;;;;;;63.78;32.85;;;6.50;99.90;;;;;;5009690;28;20064;-80
2022/11/18 02:47:36;;;;;;;70.63;37.03;;;6.40;99.90;;;;;;5025550;28;20049;-83
2022/11/18 02:50:08;;;;;;;67.07;33.50;;;6.60;99.90;;;;;;5024875;28;20060;-85
2022/11/18 02:52:36;;;;;;;64.13;33.40;;;6.40;99.90;;;;;;5023596;28;20424;-83
2022/11/18 02:55:05;;;;;;;64.35;32.42;;;6.60;99.90;;;;;;5024260;28;20045;-83
2022/11/18 02:57:33;;;;;;;60.45;31.60;;;6.50;99.90;;;;;;5026092;28;20419;-84
2022/11/18 02:59:59;;;;;;;61.85;31.98;;;6.40;99.90;;;;;;5012384;28;20103;-84
2022/11/18 03:02:25;;;;;;;52.03;28.70;;;6.60;99.90;;;;;;5021861;28;20049;-79
2022/11/18 03:04:55;;;;;;;60.95;30.95;;;6.30;99.90;;;;;;5010358;28;20115;-82
2022/11/18 03:07:30;;;;;;;68.47;29.95;;;6.50;99.90;;;;;;5035494;28;20040;-82
2022/11/18 03:09:59;;;;;;;68.35;32.63;;;6.30;99.90;;;;;;5077408;28;20471;-83
2022/11/18 03:12:50;;;;;;;67.93;33.22;;;6.50;99.90;;;;;;5114965;27;20070;-83
2022/11/18 03:15:47;;;;;;;63.63;31.58;;;6.50;99.90;;;;;;5067948;28;20044;-84
2022/11/18 03:18:34;;;;;;;57.47;28.13;;;6.40;99.90;;;;;;5098347;28;21828;-81
2022/11/18 03:21:11;;;;;;;52.95;26.65;;;6.40;99.90;;;;;;5082647;28;20055;-81
2022/11/18 03:23:51;;;;;;;45.95;25.23;;;6.10;99.90;;;;;;5065485;28;20045;-86
2022/11/18 03:26:35;;;;;;;49.08;24.67;;;6.10;99.90;;;;;;5115564;27;20043;-83
2022/11/18 03:29:17;;;;;;;46.40;25.33;;;6.20;99.90;;;;;;5082729;28;20036;-82
2022/11/18 03:31:47;;;;;;;41.08;24.38;;;6.30;99.90;;;;;;5081074;28;20488;-82
2022/11/18 03:34:30;;;;;;;41.10;21.77;;;6.10;99.90;;;;;;5097113;28;20388;-82
2022/11/18 03:37:00;;;;;;;39.72;21.92;;;6.20;99.90;;;;;;5081874;28;20035;-84
2022/11/18 03:39:30;;;;;;;39.08;21.13;;;6.30;99.90;;;;;;5116799;27;20036;-81
2022/11/18 03:42:24;;;;;;;37.05;20.90;;;6.40;99.90;;;;;;5066324;28;20044;-80
2022/11/18 03:44:54;;;;;;;30.33;18.77;;;6.20;99.90;;;;;;5082837;28;20075;-80
2022/11/18 03:47:30;;;;;;;36.75;20.27;;;6.40;99.90;;;;;;5088019;28;20111;-81
2022/11/18 03:53:43;;;;;;;30.98;19.17;;;6.10;99.90;;;;;;5085776;28;20125;-82
2022/11/18 03:56:14;;;;;;;33.33;20.77;;;6.30;99.90;;;;;;5087051;28;20036;-86
2022/11/18 03:59:01;;;;;;;32.47;17.80;;;6.30;99.90;;;;;;5071317;28;20562;-81
2022/11/18 04:01:54;;;;;;;30.02;19.20;;;6.20;99.90;;;;;;5081172;28;20043;-83
2022/11/18 04:04:21;;;;;;;33.50;19.08;;;6.10;99.90;;;;;;5073940;28;20044;-81
2022/11/18 04:06:53;;;;;;;34.72;18.05;;;6.20;99.90;;;;;;5088720;28;20057;-83
2022/11/18 04:09:25;;;;;;;35.97;19.08;;;6.30;99.90;;;;;;5109902;28;20109;-81
2022/11/18 04:12:03;;;;;;;36.33;21.23;;;6.10;99.90;;;;;;5105754;28;20405;-82
2022/11/18 04:14:35;;;;;;;32.38;18.75;;;6.00;99.90;;;;;;5080447;28;20040;-80
2022/11/18 04:17:12;;;;;;;31.08;18.55;;;6.00;99.90;;;;;;5069199;28;20052;-81
2022/11/18 04:19:38;;;;;;;28.60;17.83;;;6.00;99.90;;;;;;5092019;28;20119;-82
2022/11/18 04:22:04;;;;;;;31.02;18.50;;;6.10;99.90;;;;;;5099569;28;20040;-84
2022/11/18 04:24:30;;;;;;;28.45;17.90;;;6.30;99.90;;;;;;5069394;28;20093;-80
2022/11/18 04:26:56;;;;;;;28.90;17.38;;;6.10;99.90;;;;;;5083991;28;20107;-82
2022/11/18 04:29:22;;;;;;;33.75;19.60;;;6.10;99.90;;;;;;5066822;28;20055;-82
2022/11/18 04:31:47;;;;;;;33.10;17.80;;;6.30;99.90;;;;;;5087747;28;20357;-85
2022/11/18 04:34:13;;;;;;;28.95;17.67;;;6.20;99.90;;;;;;5067475;28;20051;-84
2022/11/18 04:36:40;;;;;;;32.15;18.02;;;6.00;99.90;;;;;;5064851;28;20093;-83
2022/11/18 04:39:06;;;;;;;30.42;18.40;;;6.10;99.90;;;;;;5076672;28;20063;-81
2022/11/18 04:44:17;;;;;;;29.23;18.17;;;6.20;99.90;;;;;;5081581;28;20060;-82
2022/11/18 04:46:43;;;;;;;27.75;17.15;;;6.00;99.90;;;;;;5082048;28;20063;-83
2022/11/18 04:49:11;;;;;;;29.33;16.65;;;6.00;99.90;;;;;;5112897;27;20462;-81
2022/11/18 04:51:37;;;;;;;30.50;17.35;;;6.20;99.90;;;;;;5062137;28;20059;-85
2022/11/18 04:54:03;;;;;;;28.00;17.13;;;6.20;99.90;;;;;;5062403;28;21909;-82
2022/11/18 04:56:33;;;;;;;28.65;17.55;;;6.00;99.90;;;;;;5115085;27;20493;-82
2022/11/18 04:59:00;;;;;;;27.85;17.08;;;6.20;99.90;;;;;;5079856;28;20033;-83
2022/11/18 05:01:28;;;;;;;26.60;16.92;;;6.00;99.90;;;;;;5079056;28;20024;-79
2022/11/18 05:03:53;;;;;;;26.85;16.55;;;6.00;99.90;;;;;;5081182;28;20085;-80
2022/11/18 05:06:20;;;;;;;30.35;16.35;;;6.20;99.90;;;;;;5067302;28;20066;-83
2022/11/18 05:08:45;;;;;;;27.20;17.73;;;6.00;99.90;;;;;;5067643;28;20477;-84
2022/11/18 05:13:55;;;;;;;27.40;16.88;;;6.20;99.90;;;;;;5120234;27;20435;-82
2022/11/18 05:16:21;;;;;;;32.42;18.40;;;6.10;99.90;;;;;;5097561;28;20100;-82
2022/11/18 05:18:46;;;;;;;28.23;17.20;;;6.20;99.90;;;;;;5061058;28;20046;-79
2022/11/18 05:21:12;;;;;;;28.23;17.85;;;6.20;99.90;;;;;;5064479;28;20054;-83
2022/11/18 05:23:38;;;;;;;31.33;17.65;;;6.10;99.90;;;;;;5079012;28;20071;-83
2022/11/18 05:26:09;;;;;;;26.50;17.00;;;5.90;99.90;;;;;;5076815;28;20075;-83
2022/11/18 05:28:35;;;;;;;32.08;18.65;;;6.10;99.90;;;;;;5099885;28;20052;-84
2022/11/18 05:31:09;;;;;;;36.10;19.20;;;5.90;99.90;;;;;;5083519;28;20090;-81
2022/11/18 05:33:53;;;;;;;31.45;18.77;;;6.00;99.90;;;;;;5067978;28;20115;-82
2022/11/18 05:36:19;;;;;;;36.28;19.98;;;6.20;99.90;;;;;;5085770;28;20046;-83
2022/11/18 05:38:45;;;;;;;33.65;19.58;;;6.00;99.90;;;;;;5069357;28;20036;-81
2022/11/18 05:43:09;;;;;;;35.03;19.70;;;5.90;99.90;;;;;;5064670;28;20093;-80
2022/11/18 05:43:58;;;;;;;38.80;18.73;;;6.00;99.90;;;;;;5077032;28;20071;-83
2022/11/18 05:46:24;;;;;;;34.47;18.13;;;6.00;99.90;;;;;;5092587;28;20032;-81
2022/11/18 05:48:50;;;;;;;38.42;19.35;;;6.10;99.90;;;;;;5067016;28;20047;-81
2022/11/18 05:51:16;;;;;;;38.53;20.02;;;5.80;99.90;;;;;;5117190;27;20040;-81
2022/11/18 05:53:42;;;;;;;33.38;17.45;;;6.10;99.90;;;;;;5084280;28;20044;-83
2022/11/18 05:56:49;;;;;;;34.67;19.13;;;6.10;99.90;;;;;;5096698;28;20517;-83
2022/11/18 05:59:15;;;;;;;34.05;17.75;;;6.10;99.90;;;;;;5022069;28;20052;-85
2022/11/18 06:02:14;;;;;;;32.75;19.13;;;6.00;99.90;;;;;;5002689;28;20057;-85
2022/11/18 06:04:53;;;;;;;33.45;17.85;;;6.10;99.90;;;;;;4930215;29;20394;-81
2022/11/18 06:07:31;;;;;;;35.22;20.00;;;6.10;99.90;;;;;;4928822;29;20075;-80
2022/11/18 06:09:59;;;;;;;33.45;18.98;;;6.00;99.90;;;;;;4928328;29;20055;-82
2022/11/18 06:12:30;;;;;;;37.33;17.48;;;6.10;99.90;;;;;;4929508;29;20088;-83
2022/11/18 06:15:02;;;;;;;36.60;18.67;;;6.00;99.90;;;;;;4911369;29;20566;-79
2022/11/18 06:17:36;;;;;;;39.80;19.45;;;5.80;99.90;;;;;;4922234;29;20130;-81
2022/11/18 06:20:03;;;;;;;38.20;19.23;;;6.10;99.90;;;;;;4942445;28;20066;-81
2022/11/18 06:22:29;;;;;;;35.80;19.27;;;5.90;99.90;;;;;;4924183;29;20195;-83
2022/11/18 06:24:54;;;;;;;36.95;20.13;;;5.80;99.90;;;;;;4925536;29;20532;-84
2022/11/18 06:27:21;;;;;;;42.40;21.60;;;6.00;99.90;;;;;;4924192;29;20090;-82
2022/11/18 06:29:46;;;;;;;37.72;17.25;;;5.80;99.90;;;;;;4961542;28;20049;-85
2022/11/18 06:32:12;;;;;;;33.97;18.65;;;5.90;99.90;;;;;;4985497;28;20834;-83
2022/11/18 06:34:38;;;;;;;38.13;19.88;;;6.00;99.90;;;;;;5003313;28;20057;-81
2022/11/18 06:37:17;;;;;;;37.83;20.08;;;5.80;99.90;;;;;;5001738;28;20393;-82
2022/11/18 06:39:43;;;;;;;40.58;19.45;;;6.00;99.90;;;;;;5002695;28;20046;-85
2022/11/18 06:42:09;;;;;;;45.83;22.00;;;6.00;99.90;;;;;;5080670;28;20078;-80
2022/11/18 06:44:35;;;;;;;41.97;20.45;;;6.10;99.90;;;;;;5083926;28;20044;-84
2022/11/18 06:47:02;;;;;;;45.25;21.25;;;6.10;99.90;;;;;;5072195;28;20051;-86
2022/11/18 06:49:28;;;;;;;37.53;20.90;;;5.70;99.90;;;;;;5108614;28;20036;-83
2022/11/18 06:51:54;;;;;;;37.92;18.88;;;5.80;99.90;;;;;;5086786;28;20040;-80
2022/11/18 06:54:19;;;;;;;46.60;21.52;;;6.10;99.90;;;;;;5086420;28;20045;-83
2022/11/18 06:56:49;;;;;;;40.97;21.27;;;6.00;99.90;;;;;;5086406;28;20126;-83
2022/11/18 06:59:21;;;;;;;40.88;21.80;;;6.00;99.90;;;;;;5069656;28;20123;-83
2022/11/18 07:01:48;;;;;;;48.50;21.05;;;5.80;99.90;;;;;;5089946;28;21042;-85
2022/11/18 07:04:33;;;;;;;50.95;22.52;;;5.70;99.90;;;;;;5072680;28;20388;-81
2022/11/18 07:06:59;;;;;;;;;;;5.80;99.90;;;;;;5068248;28;20056;-84
2022/11/18 07:09:26;;;;;;;44.72;22.42;;;5.90;99.90;;;;;;5085647;28;20012;-82
2022/11/18 07:11:52;;;;;;;47.78;22.48;;;5.80;99.90;;;;;;5067337;28;21850;-84
2022/11/18 07:14:18;;;;;;;44.35;21.40;;;5.60;99.90;;;;;;5081401;28;20059;-80
2022/11/18 07:16:43;;;;;;;40.78;21.17;;;5.70;99.90;;;;;;5063074;28;20134;-84
2022/11/18 07:19:11;;;;;;;40.97;20.73;;;6.00;99.90;;;;;;5084253;28;20047;-85
2022/11/18 07:21:37;;;;;;;45.45;21.65;;;5.60;99.90;;;;;;5083012;28;20063;-82
2022/11/18 07:24:07;;;;;;;47.08;21.67;;;5.70;99.90;;;;;;5078782;28;20036;-85
2022/11/18 07:26:34;;;;;;;43.10;19.10;;;5.80;99.90;;;;;;5113842;27;20052;-86
2022/11/18 07:29:00;;;;;;;45.03;20.08;;;5.90;99.90;;;;;;5080699;28;20040;-81
2022/11/18 07:31:26;;;;;;;41.40;20.95;;;5.70;99.90;;;;;;5077004;28;20043;-81
2022/11/18 07:33:54;;;;;;;40.60;19.83;;;5.80;99.90;;;;;;5093655;27;20044;-84
2022/11/18 07:36:22;;;;;;;43.63;21.10;;;6.00;99.90;;;;;;5084547;28;20035;-83
2022/11/18 07:38:48;;;;;;;44.72;20.50;;;5.70;99.90;;;;;;5113799;27;20087;-82
2022/11/18 07:41:16;;;;;;;41.72;20.92;;;5.80;99.90;;;;;;5111664;27;20071;-83
2022/11/18 07:43:43;;;;;;;46.55;22.77;;;5.90;99.90;;;;;;5046400;28;20059;-85
2022/11/18 07:46:10;;;;;;;44.25;20.35;;;5.70;99.90;;;;;;5084644;28;20044;-82
2022/11/18 07:48:36;;;;;;;39.38;19.45;;;5.70;99.90;;;;;;5119049;27;20036;-82
2022/11/18 07:51:02;;;;;;;41.25;19.80;;;5.60;99.90;;;;;;5088240;28;20077;-81
2022/11/18 07:53:32;;;;;;;41.22;19.67;;;5.90;99.90;;;;;;5083574;28;20225;-79
2022/11/18 07:55:59;;;;;;;43.08;21.15;;;5.70;99.90;;;;;;5121730;27;21832;-83
2022/11/18 07:58:24;;;;;;;44.78;21.38;;;5.90;99.90;;;;;;5086934;28;20024;-86
2022/11/18 08:00:50;;;;;;;45.17;21.27;;;5.90;99.90;;;;;;5096505;28;20090;-83
2022/11/18 08:03:16;;;;;;;42.88;21.27;;;5.70;99.90;;;;;;5093489;28;20064;-81
2022/11/18 08:06:20;;;;;;;39.92;21.45;;;6.00;99.90;;;;;;5123056;27;20047;-81
2022/11/18 08:08:47;;;;;;;37.50;18.77;;;5.60;99.90;;;;;;5087340;28;20052;-82
2022/11/18 08:11:18;;;;;;;40.03;21.90;;;5.80;99.90;;;;;;5082702;28;20253;-84
2022/11/18 08:13:43;;;;;;;36.10;17.75;;;5.70;99.90;;;;;;5081853;28;20134;-81
2022/11/18 08:16:17;;;;;;;36.50;19.70;;;5.90;99.90;;;;;;5088534;28;20114;-82
2022/11/18 08:18:43;;;;;;;35.97;18.03;;;6.00;99.90;;;;;;5068063;28;20052;-83
2022/11/18 08:21:09;;;;;;;39.25;18.83;;;5.60;99.90;;;;;;5067136;28;20066;-86
2022/11/18 08:23:35;;;;;;;33.42;18.55;;;5.60;99.90;;;;;;5067995;28;20062;-81
2022/11/18 08:26:03;;;;;;;27.85;17.63;;;5.80;99.90;;;;;;5086880;28;20433;-84
2022/11/18 08:28:29;;;;;;;36.10;18.77;;;5.60;99.90;;;;;;5084220;28;20051;-83
2022/11/18 08:30:55;;;;;;;36.65;18.13;;;5.60;99.90;;;;;;5068751;28;20052;-82
2022/11/18 08:33:21;;;;;;;33.72;17.75;;;5.60;99.90;;;;;;5087314;28;20047;-81
2022/11/18 08:36:25;;;;;;;33.63;16.98;;;5.60;99.90;;;;;;5073244;28;20047;-83
2022/11/18 08:38:51;;;;;;;36.58;16.48;;;5.70;99.90;;;;;;5080648;28;20551;-85
2022/11/18 08:41:21;;;;;;;29.83;17.58;;;5.80;99.90;;;;;;5082651;28;20127;-82
2022/11/18 08:43:47;;;;;;;35.50;19.08;;;5.80;99.90;;;;;;5085575;28;20566;-83
2022/11/18 08:46:13;;;;;;;41.25;18.50;;;5.70;99.90;;;;;;5067873;28;20048;-81
2022/11/18 08:48:38;;;;;;;33.28;20.73;;;5.70;99.90;;;;;;5073171;28;20039;-82
2022/11/18 08:51:08;;;;;;;36.47;20.17;;;5.80;99.90;;;;;;5084827;28;20127;-84
2022/11/18 08:53:33;;;;;;;34.65;20.35;;;5.80;99.90;;;;;;5086821;28;20520;-85
2022/11/18 08:56:00;;;;;;;43.58;22.13;;;5.70;99.90;;;;;;5069212;28;20067;-81
2022/11/18 08:58:26;;;;;;;38.80;22.00;;;5.50;99.90;;;;;;5101211;28;20129;-85
2022/11/18 09:00:52;;;;;;;34.65;20.13;;;5.50;99.90;;;;;;5124569;27;20040;-80
2022/11/18 09:03:18;;;;;;;34.65;20.20;;;5.80;99.90;;;;;;5106912;28;20051;-82
2022/11/18 09:05:44;;;;;;;34.83;19.52;;;5.90;99.90;;;;;;5087422;28;20356;-82
2022/11/18 09:08:10;;;;;;;32.92;18.67;;;5.50;99.90;;;;;;5089460;28;20047;-84
2022/11/18 09:10:36;;;;;;;30.95;18.35;;;5.60;99.90;;;;;;5116777;27;20050;-81
2022/11/18 09:13:04;;;;;;;34.70;17.85;;;5.80;99.90;;;;;;5085145;28;20447;-82
2022/11/18 09:15:30;;;;;;;37.28;18.85;;;5.80;99.90;;;;;;5066393;28;20137;-80
2022/11/18 09:17:56;;;;;;;30.23;18.30;;;5.80;99.90;;;;;;5058480;28;20048;-83
2022/11/18 09:20:22;;;;;;;27.73;16.85;;;5.80;99.90;;;;;;5085081;28;22329;-83
2022/11/18 09:22:48;;;;;;;29.05;17.27;;;5.60;99.90;;;;;;5117284;27;20052;-83
2022/11/18 09:25:14;;;;;;;32.72;16.92;;;5.80;99.90;;;;;;5086998;28;20028;-84
2022/11/18 09:27:39;;;;;;;31.00;18.30;;;5.80;99.90;;;;;;5114302;27;20131;-82
2022/11/18 09:30:06;;;;;;;29.13;18.75;;;5.60;99.90;;;;;;5086997;28;20131;-85
2022/11/18 09:32:32;;;;;;;29.02;17.63;;;5.60;99.90;;;;;;5081789;28;20078;-84
2022/11/18 09:34:58;;;;;;;26.08;16.88;;;5.50;99.90;;;;;;5087077;28;20044;-82
2022/11/18 09:37:24;;;;;;;31.58;17.60;;;5.50;99.90;;;;;;5065777;28;20434;-85
2022/11/18 09:39:50;;;;;;;25.27;16.13;;;5.70;99.90;;;;;;5089189;28;20177;-83
2022/11/18 09:42:27;;;;;;;26.80;16.35;;;5.70;99.90;;;;;;5086596;28;20371;-83
2022/11/18 09:45:18;;;;;;;25.25;15.95;;;5.60;99.90;;;;;;5090398;28;20067;-86
2022/11/18 09:47:44;;;;;;;25.50;16.02;;;5.50;99.90;;;;;;5089824;28;20447;-85
2022/11/18 09:50:13;;;;;;;27.10;15.65;;;5.80;99.90;;;;;;5091163;28;20174;-85
2022/11/18 09:53:03;;;;;;;24.05;15.07;;;5.50;99.90;;;;;;5106971;28;20082;-83
2022/11/18 09:55:28;;;;;;;24.50;14.73;;;5.60;99.90;;;;;;5072721;28;20125;-82
2022/11/18 09:57:57;;;;;;;27.27;15.77;;;5.50;99.90;;;;;;5071146;28;20071;-84
2022/11/18 10:00:25;;;;;;;25.48;15.18;;;5.70;99.90;;;;;;5074206;28;20040;-82
2022/11/18 10:03:24;;;;;;;26.95;15.43;;;5.70;99.90;;;;;;5104756;28;20044;-81
2022/11/18 10:05:57;;;;;;;29.17;15.85;;;5.60;99.90;;;;;;5094918;28;20036;-84
2022/11/18 10:08:43;;;;;;;21.20;13.05;;;5.80;99.90;;;;;;5127250;27;20044;-79
2022/11/18 10:11:09;;;;;;;26.88;15.82;;;5.60;99.90;;;;;;5075820;28;20093;-81
2022/11/18 10:14:02;;;;;;;23.75;15.48;;;5.80;99.90;;;;;;5093474;28;20661;-79
2022/11/18 10:16:34;;;;;;;27.95;16.33;;;5.60;99.90;;;;;;5094824;28;20048;-85
2022/11/18 10:19:21;;;;;;;25.38;15.80;;;5.60;99.90;;;;;;5091747;28;20047;-82
2022/11/18 10:22:17;;;;;;;26.48;17.00;;;5.50;99.90;;;;;;5112560;27;20044;-85
2022/11/18 10:24:52;;;;;;;30.52;17.50;;;5.80;99.90;;;;;;5087630;28;20395;-80
2022/11/18 10:27:18;;;;;;;27.38;17.63;;;5.50;99.90;;;;;;5078014;28;20088;-85
2022/11/18 10:29:51;;;;;;;29.30;17.55;;;5.70;99.90;;;;;;5093809;28;20032;-83
2022/11/18 10:32:17;;;;;;;32.60;18.73;;;5.50;99.90;;;;;;5093661;28;20055;-84
2022/11/18 10:35:01;;;;;;;28.05;18.40;;;5.70;99.90;;;;;;5093509;28;20048;-82
2022/11/18 10:37:32;;;;;;;26.80;17.70;;;5.70;99.90;;;;;;5128065;27;20032;-84
2022/11/18 10:40:04;;;;;;;32.67;17.13;;;5.50;99.90;;;;;;5076863;28;20081;-82
2022/11/18 10:42:47;;;;;;;30.15;19.10;;;5.50;99.90;;;;;;5094248;28;20501;-81
2022/11/18 10:45:25;;;;;;;31.20;18.73;;;5.40;99.90;;;;;;5076831;28;20048;-86
2022/11/18 10:48:05;;;;;;;30.98;18.63;;;5.50;99.90;;;;;;5076082;28;20461;-82
2022/11/18 10:50:42;;;;;;;24.23;15.20;;;5.30;99.90;;;;;;5069871;28;20040;-86
2022/11/18 10:53:32;;;;;;;31.48;18.60;;;5.40;99.90;;;;;;5085523;28;20137;-85
2022/11/18 10:56:02;;;;;;;32.75;19.20;;;5.30;99.90;;;;;;5088033;28;20067;-85
2022/11/18 10:58:30;;;;;;;31.52;19.70;;;5.40;99.90;;;;;;5089735;28;20523;-86
2022/11/18 11:01:12;;;;;;;37.28;20.90;;;5.30;99.90;;;;;;5119542;27;20076;-85
2022/11/18 11:03:41;;;;;;;32.45;17.75;;;5.50;99.90;;;;;;5067397;28;20066;-84
2022/11/18 11:06:22;;;;;;;26.48;15.30;;;5.30;99.90;;;;;;5099509;28;20089;-83
2022/11/18 11:08:53;;;;;;;32.33;17.77;;;5.20;99.90;;;;;;5084721;28;20100;-82
2022/11/18 11:11:25;;;;;;;33.05;20.88;;;5.00;99.90;;;;;;5069739;28;20471;-87
2022/11/18 11:13:54;;;;;;;36.00;20.90;;;4.90;99.90;;;;;;5073675;28;20040;-87
2022/11/18 11:16:20;;;;;;;38.65;21.58;;;5.00;99.90;;;;;;5086425;28;20050;-86
2022/11/18 11:18:53;;;;;;;32.70;19.50;;;4.90;99.90;;;;;;5111847;27;20830;-82
2022/11/18 11:21:26;;;;;;;39.45;22.10;;;5.20;99.90;;;;;;5088980;28;20079;-85
2022/11/18 11:23:51;;;;;;;42.65;22.83;;;5.20;99.90;;;;;;5074904;28;20472;-88
2022/11/18 11:26:34;;;;;;;42.05;23.80;;;4.90;99.90;;;;;;5077150;28;20141;-87
2022/11/18 11:29:20;;;;;;;47.83;23.30;;;5.00;99.90;;;;;;5066099;28;20033;-86
2022/11/18 11:31:58;;;;;;;40.42;22.85;;;4.80;99.90;;;;;;5090269;28;20494;-85
2022/11/18 11:34:47;;;;;;;44.67;23.35;;;4.90;99.90;;;;;;5073316;28;20063;-89
2022/11/18 11:37:19;;;;;;;44.70;22.60;;;4.90;99.90;;;;;;5073654;28;20036;-85
2022/11/18 11:39:56;;;;;;;42.65;24.70;;;4.80;99.90;;;;;;5083749;28;20111;-84
2022/11/18 11:43:01;;;;;;;47.60;24.70;;;4.90;99.90;;;;;;5096991;28;20059;-85
2022/11/18 11:45:36;;;;;;;44.25;23.67;;;5.00;99.90;;;;;;5093293;28;20138;-87
2022/11/18 11:48:44;;;;;;;44.90;23.50;;;5.10;99.90;;;;;;5102668;28;20036;-85
2022/11/18 11:51:29;;;;;;;45.67;23.63;;;4.80;99.90;;;;;;5036067;28;20045;-86
2022/11/18 11:54:05;;;;;;;45.22;22.95;;;4.90;99.90;;;;;;5061321;28;20044;-87
2022/11/18 11:56:56;;;;;;;43.17;22.48;;;4.60;99.90;;;;;;5041000;28;20145;-84
2022/11/18 11:59:44;;;;;;;48.55;23.17;;;4.80;99.90;;;;;;5039453;28;20113;-84
2022/11/18 12:02:43;;;;;;;54.72;25.55;;;4.90;99.90;;;;;;5038702;28;20189;-85
2022/11/18 12:05:38;;;;;;;40.97;22.25;;;4.80;99.90;;;;;;5035726;28;20041;-82
2022/11/18 12:08:13;;;;;;;47.05;22.77;;;4.90;99.90;;;;;;5035229;28;20049;-83
2022/11/18 12:10:51;;;;;;;45.75;23.83;;;4.90;99.90;;;;;;5006317;28;20393;-80
2022/11/18 12:13:20;;;;;;;43.33;24.33;;;4.90;99.90;;;;;;5039804;28;20403;-80
2022/11/18 12:15:59;;;;;;;45.97;23.95;;;4.80;99.90;;;;;;5007171;28;20053;-84
2022/11/18 12:18:44;;;;;;;41.83;23.50;;;4.70;99.90;;;;;;5036862;28;20045;-81
2022/11/18 12:21:42;;;;;;;40.67;21.08;;;4.70;99.90;;;;;;5061035;28;20057;-83
2022/11/18 12:24:29;;;;;;;44.35;21.88;;;4.60;99.90;;;;;;5044472;28;20043;-84
2022/11/18 12:27:01;;;;;;;39.42;22.20;;;4.50;99.90;;;;;;5047097;28;20056;-82
2022/11/18 12:29:49;;;;;;;35.22;18.92;;;4.60;99.90;;;;;;5119616;27;20043;-85
2022/11/18 12:32:44;;;;;;;33.13;20.23;;;4.60;99.90;;;;;;5074464;28;20032;-83
2022/11/18 12:35:32;;;;;;;33.72;18.90;;;4.60;99.90;;;;;;5071081;28;20047;-83
2022/11/18 12:37:59;;;;;;;39.58;20.60;;;4.60;99.90;;;;;;5091069;28;20039;-86
2022/11/18 12:40:37;;;;;;;30.10;17.42;;;4.60;99.90;;;;;;5117545;27;20100;-83
2022/11/18 12:45:54;;;;;;;31.20;18.58;;;4.60;99.90;;;;;;5087839;28;20372;-83
2022/11/18 12:48:27;;;;;;;29.92;17.80;;;4.60;99.90;;;;;;5097930;28;20040;-84
2022/11/18 12:50:55;;;;;;;29.48;17.15;;;4.60;99.90;;;;;;5097145;28;20266;-85
2022/11/18 12:53:41;;;;;;;28.77;17.20;;;4.70;99.90;;;;;;5083613;28;20032;-82
2022/11/18 12:56:16;;;;;;;29.65;16.63;;;4.40;99.90;;;;;;5098852;28;20153;-81
2022/11/18 12:58:46;;;;;;;30.60;18.05;;;4.60;99.90;;;;;;5084019;28;20046;-81
2022/11/18 13:01:15;;;;;;;39.00;19.27;;;4.30;99.90;;;;;;5065233;28;20058;-81
2022/11/18 13:03:41;;;;;;;29.35;18.17;;;4.20;99.90;;;;;;5066383;28;20540;-84
2022/11/18 13:06:27;;;;;;;32.13;19.55;;;4.40;99.90;;;;;;5084182;28;20032;-84
2022/11/18 13:08:57;;;;;;;30.65;19.23;;;4.10;99.90;;;;;;5066755;28;20153;-83
2022/11/18 13:11:43;;;;;;;34.28;20.50;;;4.20;99.90;;;;;;5067260;28;20066;-84
2022/11/18 13:20:34;;;;;;;41.90;22.77;;;4.40;99.90;;;;;;5082911;28;20040;-81
2022/11/18 13:26:29;;;;;;;40.78;23.63;;;4.30;99.90;;;;;;5082292;28;20044;-81
2022/11/18 13:29:25;;;;;;;44.38;25.60;;;4.10;99.90;;;;;;5086128;28;20139;-84
2022/11/18 13:32:26;;;;;;;40.75;23.45;;;4.20;99.90;;;;;;5099266;28;20467;-81